Time;durP1;ratioP1;P1;durP2;ratioP2;P2;SDS_P1;SDS_P2;PMS_P1;PMS_P2;Temp;Humidity;BMP_temperature;BMP_pressure;BME280_temperature;BME280_humidity;BME280_pressure;Samples;Min_cycle;Max_cycle;Signal;HPM_P1;HPM_P2
2022/10/31 07:10:13;;;;;;;11.52;4.95;;;;;;;;;;5691967;23;20125;-89
2022/10/31 07:12:38;;;;;;;12.00;5.05;;;;;;;;;;4976221;28;20489;-88
2022/10/31 07:15:04;;;;;;;10.52;4.80;;;;;;;;;;4976232;28;20030;-88
2022/10/31 07:17:30;;;;;;;13.95;6.07;;;;;;;;;;4976566;28;20035;-88
2022/10/31 07:19:56;;;;;;;15.63;7.22;;;;;;;;;;4959308;28;20026;-87
2022/10/31 07:22:21;;;;;;;13.68;6.57;;;;;;;;;;4976690;28;20031;-86
2022/10/31 07:24:46;;;;;;;14.68;5.93;;;;;;;;;;4976545;28;20065;-87
2022/10/31 07:27:12;;;;;;;15.75;5.43;;;;;;;;;;4976310;28;20101;-80
2022/10/31 07:29:37;;;;;;;13.80;4.82;;;;;;;;;;4975745;28;20454;-79
2022/10/31 07:32:03;;;;;;;11.70;5.32;;;;;;;;;;4976643;28;20041;-81
2022/10/31 07:34:28;;;;;;;12.82;6.35;;;;;;;;;;4976571;28;20023;-84
2022/10/31 07:36:54;;;;;;;13.05;5.38;;;;;;;;;;4976420;28;20023;-80
2022/10/31 07:39:19;;;;;;;11.00;4.82;;;;;;;;;;4976310;28;20130;-80
2022/10/31 07:41:45;;;;;;;12.60;4.38;;;;;;;;;;4976404;28;20066;-80
2022/10/31 07:44:10;;;;;;;6.30;3.88;;;;;;;;;;4976121;28;20153;-84
2022/10/31 07:46:36;;;;;;;9.70;3.28;;;;;;;;;;4976596;28;20114;-80
2022/10/31 07:49:01;;;;;;;8.27;4.05;;;;;;;;;;4985187;28;20026;-80
2022/10/31 07:51:27;;;;;;;5.13;3.08;;;;;;;;;;4995602;28;20454;-80
2022/10/31 07:53:52;;;;;;;9.48;3.38;;;;;;;;;;4995802;28;20114;-80
2022/10/31 07:56:18;;;;;;;7.13;3.30;;;;;;;;;;4995120;28;20057;-80
2022/10/31 07:58:43;;;;;;;12.25;3.83;;;;;;;;;;4995898;28;20041;-79
2022/10/31 08:01:09;;;;;;;6.93;3.35;;;;;;;;;;4995981;28;20105;-78
2022/10/31 08:03:34;;;;;;;12.30;3.58;;;;;;;;;;4995459;28;20023;-78
2022/10/31 08:05:59;;;;;;;9.20;3.42;;;;;;;;;;4995154;28;20037;-78
2022/10/31 08:08:27;;;;;;;7.40;2.80;;;;;;;;;;4995406;28;20027;-79
2022/10/31 08:10:53;;;;;;;7.28;3.30;;;;;;;;;;4995006;28;20042;-79
2022/10/31 08:13:19;;;;;;;8.13;3.75;;;;;;;;;;4995185;28;20041;-79
2022/10/31 08:15:49;;;;;;;7.13;3.15;;;;;;;;;;4994914;28;20034;-79
2022/10/31 08:18:15;;;;;;;9.23;3.75;;;;;;;;;;4994859;28;20022;-79
2022/10/31 08:20:41;;;;;;;8.85;4.00;;;;;;;;;;4995260;28;20110;-79
2022/10/31 08:23:09;;;;;;;11.52;3.83;;;;;;;;;;4995267;28;20034;-79
2022/10/31 08:25:35;;;;;;;12.50;3.75;;;;;;;;;;4994944;28;20031;-79
2022/10/31 08:28:01;;;;;;;8.45;3.35;;;;;;;;;;4994659;28;20473;-79
2022/10/31 08:30:29;;;;;;;6.32;3.13;;;;;;;;;;4994820;28;20028;-78
2022/10/31 08:33:05;;;;;;;9.75;3.42;;;;;;;;;;4994990;28;20037;-79
2022/10/31 08:35:34;;;;;;;8.15;3.38;;;;;;;;;;4994592;28;20069;-79
2022/10/31 08:38:00;;;;;;;8.02;3.20;;;;;;;;;;4994851;28;20490;-79
2022/10/31 08:40:27;;;;;;;7.30;3.08;;;;;;;;;;4993706;28;20042;-79
2022/10/31 08:43:13;;;;;;;9.05;3.33;;;;;;;;;;4994696;28;20116;-79
2022/10/31 08:45:39;;;;;;;9.65;3.10;;;;;;;;;;4994679;28;20027;-79
2022/10/31 08:48:09;;;;;;;6.25;3.10;;;;;;;;;;4994616;28;20065;-78
2022/10/31 08:50:35;;;;;;;;;;;;;;;;;;4995025;28;20105;-80
2022/10/31 08:53:07;;;;;;;7.30;2.80;;;;;;;;;;4994483;28;19987;-79
2022/10/31 08:55:35;;;;;;;5.82;2.50;;;;;;;;;;4994405;28;20026;-79
2022/10/31 08:58:01;;;;;;;8.30;3.53;;;;;;;;;;4994196;28;20572;-79
2022/10/31 09:00:26;;;;;;;11.73;3.47;;;;;;;;;;4994537;28;20034;-77
2022/10/31 09:03:18;;;;;;;6.35;2.95;;;;;;;;;;4977440;28;20050;-79
2022/10/31 09:05:45;;;;;;;5.70;3.00;;;;;;;;;;4983971;28;20098;-81
2022/10/31 09:08:11;;;;;;;8.20;2.83;;;;;;;;;;4980536;28;20022;-77
2022/10/31 09:10:37;;;;;;;6.97;2.97;;;;;;;;;;4978880;28;20386;-78
2022/10/31 09:13:06;;;;;;;9.20;3.50;;;;;;;;;;4974655;28;20057;-78
2022/10/31 09:15:33;;;;;;;5.50;2.83;;;;;;;;;;4974975;28;20065;-79
2022/10/31 09:18:00;;;;;;;4.30;2.25;;;;;;;;;;4974693;28;20031;-79
2022/10/31 09:20:26;;;;;;;12.65;3.92;;;;;;;;;;4974921;28;20541;-77
2022/10/31 09:23:03;;;;;;;4.72;2.80;;;;;;;;;;4974941;28;20031;-77
2022/10/31 09:25:29;;;;;;;8.68;3.55;;;;;;;;;;4974643;28;20033;-79
2022/10/31 09:27:58;;;;;;;8.02;4.13;;;;;;;;;;4974566;28;20113;-80
2022/10/31 09:30:29;;;;;;;7.38;2.92;;;;;;;;;;4957440;28;20134;-77
2022/10/31 09:32:56;;;;;;;6.38;2.78;;;;;;;;;;4974650;28;20555;-77
2022/10/31 09:35:22;;;;;;;8.40;3.30;;;;;;;;;;4974694;28;20031;-78
2022/10/31 09:37:53;;;;;;;9.15;3.80;;;;;;;;;;4974776;28;20038;-77
2022/10/31 09:40:18;;;;;;;7.22;3.28;;;;;;;;;;4974565;28;20038;-77
2022/10/31 09:43:06;;;;;;;7.32;2.92;;;;;;;;;;4974698;28;20045;-77
2022/10/31 09:45:44;;;;;;;7.13;2.97;;;;;;;;;;4974618;28;20592;-77
2022/10/31 09:48:27;;;;;;;5.97;2.53;;;;;;;;;;4974187;28;20474;-75
2022/10/31 09:50:58;;;;;;;7.88;3.00;;;;;;;;;;4974834;28;20437;-80
2022/10/31 09:53:35;;;;;;;9.40;3.28;;;;;;;;;;4997686;28;20077;-76
2022/10/31 09:56:01;;;;;;;9.02;2.90;;;;;;;;;;4997901;28;20462;-80
2022/10/31 09:58:29;;;;;;;8.55;3.15;;;;;;;;;;4996239;28;20049;-75
2022/10/31 10:01:00;;;;;;;7.53;3.03;;;;;;;;;;4978054;28;20031;-75
2022/10/31 10:03:41;;;;;;;8.75;3.33;;;;;;;;;;4978207;28;20077;-75
2022/10/31 10:06:14;;;;;;;8.05;2.80;;;;;;;;;;4977654;28;20061;-74
2022/10/31 10:08:40;;;;;;;6.63;2.90;;;;;;;;;;4989395;28;20482;-76
2022/10/31 10:11:28;;;;;;;6.13;3.25;;;;;;;;;;4997410;28;20088;-78
2022/10/31 10:14:05;;;;;;;8.55;3.15;;;;;;;;;;4997334;28;20030;-78
2022/10/31 10:16:33;;;;;;;6.00;2.85;;;;;;;;;;4997018;28;20478;-78
2022/10/31 10:19:22;;;;;;;7.72;3.30;;;;;;;;;;4997255;28;20030;-78
2022/10/31 10:22:08;;;;;;;11.13;3.42;;;;;;;;;;4997302;28;20425;-76
2022/10/31 10:25:02;;;;;;;7.22;3.05;;;;;;;;;;4997178;28;20462;-78
2022/10/31 10:27:45;;;;;;;8.70;3.10;;;;;;;;;;4992217;28;20038;-77
2022/10/31 10:30:40;;;;;;;8.07;2.90;;;;;;;;;;4979366;28;20026;-77
2022/10/31 10:33:11;;;;;;;9.40;4.07;;;;;;;;;;4984305;28;20161;-75
2022/10/31 10:35:49;;;;;;;11.50;3.70;;;;;;;;;;4957965;28;20126;-76
2022/10/31 10:38:29;;;;;;;10.40;3.10;;;;;;;;;;4977258;28;20031;-76
2022/10/31 10:40:55;;;;;;;12.18;4.35;;;;;;;;;;4977309;28;20501;-75
2022/10/31 10:43:30;;;;;;;9.23;3.42;;;;;;;;;;4977163;28;20037;-75
2022/10/31 10:48:55;;;;;;;6.63;3.25;;;;;;;;;;4977088;28;20034;-75
2022/10/31 10:51:46;;;;;;;8.93;3.00;;;;;;;;;;4976992;28;20026;-75
2022/10/31 10:54:24;;;;;;;6.57;3.38;;;;;;;;;;4976765;28;20030;-77
2022/10/31 10:56:59;;;;;;;7.47;3.30;;;;;;;;;;4977099;28;20354;-76
2022/10/31 10:59:25;;;;;;;6.70;3.20;;;;;;;;;;4976958;28;20540;-75
2022/10/31 11:01:51;;;;;;;6.43;2.80;;;;;;;;;;4976655;28;20026;-76
2022/10/31 11:04:22;;;;;;;7.32;3.10;;;;;;;;;;4975747;28;20022;-77
2022/10/31 11:06:57;;;;;;;8.05;3.35;;;;;;;;;;4976902;28;20470;-75
2022/10/31 11:09:23;;;;;;;12.85;3.45;;;;;;;;;;4976655;28;20027;-77
2022/10/31 11:11:49;;;;;;;6.45;2.90;;;;;;;;;;4976482;28;20039;-77
2022/10/31 11:14:17;;;;;;;6.72;3.03;;;;;;;;;;4976575;28;20027;-77
2022/10/31 11:16:45;;;;;;;7.38;2.90;;;;;;;;;;4965580;28;20027;-84
2022/10/31 11:19:26;;;;;;;8.35;3.00;;;;;;;;;;4985096;28;20022;-89
2022/10/31 11:21:51;;;;;;;13.15;4.53;;;;;;;;;;4979463;28;20054;-88
2022/10/31 11:24:20;;;;;;;6.55;3.50;;;;;;;;;;4979260;28;20093;-88
2022/10/31 11:26:48;;;;;;;6.63;2.95;;;;;;;;;;4983550;28;20052;-85
2022/10/31 11:29:15;;;;;;;7.00;3.37;;;;;;;;;;4986169;28;20054;-87
2022/10/31 11:31:41;;;;;;;7.53;3.08;;;;;;;;;;4986569;28;20022;-86
2022/10/31 11:34:27;;;;;;;7.95;3.28;;;;;;;;;;4971092;28;20018;-91
2022/10/31 11:36:53;;;;;;;8.82;3.55;;;;;;;;;;4987912;28;20018;-89
2022/10/31 11:39:22;;;;;;;8.10;3.15;;;;;;;;;;4985964;28;20429;-88
2022/10/31 11:41:50;;;;;;;11.10;3.45;;;;;;;;;;4962381;28;20042;-89
2022/10/31 11:44:25;;;;;;;8.18;3.38;;;;;;;;;;4962394;28;20027;-82
2022/10/31 11:46:58;;;;;;;8.77;3.40;;;;;;;;;;4980413;28;20422;-79
2022/10/31 11:49:32;;;;;;;6.05;2.95;;;;;;;;;;4976361;28;20497;-78
2022/10/31 11:52:05;;;;;;;10.75;3.22;;;;;;;;;;4991861;28;20015;-88
2022/10/31 11:54:55;;;;;;;9.95;3.25;;;;;;;;;;4994629;28;20035;-83
2022/10/31 11:57:26;;;;;;;7.72;3.25;;;;;;;;;;4992022;28;20096;-86
2022/10/31 11:59:58;;;;;;;9.00;3.10;;;;;;;;;;4979544;28;20027;-87
2022/10/31 12:02:24;;;;;;;11.48;3.78;;;;;;;;;;4982350;28;20035;-89
2022/10/31 12:05:04;;;;;;;9.98;3.05;;;;;;;;;;4998114;28;20026;-87
2022/10/31 12:07:30;;;;;;;8.18;2.88;;;;;;;;;;4996586;28;20033;-96
2022/10/31 12:10:12;;;;;;;14.50;3.70;;;;;;;;;;4992790;23;20039;-92
2022/10/31 12:12:52;;;;;;;9.40;3.10;;;;;;;;;;4975764;28;20034;-90
2022/10/31 12:15:31;;;;;;;12.15;3.25;;;;;;;;;;4982421;28;20533;-83
2022/10/31 12:18:17;;;;;;;5.88;3.00;;;;;;;;;;4975837;28;20118;-77
2022/10/31 12:21:00;;;;;;;11.50;3.15;;;;;;;;;;4974606;28;20027;-77
2022/10/31 12:23:34;;;;;;;9.68;2.88;;;;;;;;;;4976187;28;20031;-84
2022/10/31 12:26:22;;;;;;;9.95;3.35;;;;;;;;;;4977162;28;20062;-77
2022/10/31 12:29:11;;;;;;;6.60;2.90;;;;;;;;;;4975748;28;20030;-78
2022/10/31 12:31:53;;;;;;;8.43;2.83;;;;;;;;;;4964933;28;20031;-77
2022/10/31 12:34:35;;;;;;;9.40;3.90;;;;;;;;;;4975507;28;20067;-77
2022/10/31 12:37:36;;;;;;;10.07;4.60;;;;;;;;;;4976344;28;20035;-77
2022/10/31 12:40:13;;;;;;;6.72;2.78;;;;;;;;;;4975527;28;20041;-79
2022/10/31 12:42:57;;;;;;;7.00;3.40;;;;;;;;;;4975138;28;20034;-80
2022/10/31 12:45:37;;;;;;;7.07;2.70;;;;;;;;;;4975051;28;20428;-78
2022/10/31 12:48:33;;;;;;;8.27;2.70;;;;;;;;;;4975039;28;20113;-78
2022/10/31 12:51:03;;;;;;;8.65;2.70;;;;;;;;;;4974987;28;20166;-78
2022/10/31 12:54:19;;;;;;;12.35;3.00;;;;;;;;;;4975477;28;20027;-78
2022/10/31 12:57:12;;;;;;;6.10;2.90;;;;;;;;;;4925452;28;20121;-77
2022/10/31 12:59:47;;;;;;;8.45;3.22;;;;;;;;;;4975071;28;20054;-78
2022/10/31 13:02:29;;;;;;;4.93;2.53;;;;;;;;;;4969523;28;20030;-78
2022/10/31 13:05:40;;;;;;;9.38;2.83;;;;;;;;;;4969709;28;20033;-77
2022/10/31 13:08:07;;;;;;;8.02;2.90;;;;;;;;;;4968351;28;20070;-77
2022/10/31 13:10:44;;;;;;;5.03;2.22;;;;;;;;;;4969068;28;20046;-77
2022/10/31 13:13:23;;;;;;;7.50;2.80;;;;;;;;;;4975103;28;20099;-77
2022/10/31 13:16:07;;;;;;;6.78;2.80;;;;;;;;;;4974577;28;20553;-78
2022/10/31 13:18:40;;;;;;;4.57;2.50;;;;;;;;;;4974733;28;20031;-78
2022/10/31 13:21:15;;;;;;;6.65;2.67;;;;;;;;;;4974941;28;20383;-78
2022/10/31 13:23:41;;;;;;;9.77;3.08;;;;;;;;;;4975049;28;20027;-77
2022/10/31 13:26:12;;;;;;;6.78;3.72;;;;;;;;;;4975051;28;20484;-78
2022/10/31 13:28:51;;;;;;;6.78;2.95;;;;;;;;;;4978633;28;20023;-78
2022/10/31 13:31:16;;;;;;;7.50;3.07;;;;;;;;;;4978546;28;20085;-78
2022/10/31 13:33:47;;;;;;;4.88;2.75;;;;;;;;;;4978790;28;20063;-78
2022/10/31 13:36:30;;;;;;;8.85;2.97;;;;;;;;;;4978605;28;20034;-78
2022/10/31 13:39:14;;;;;;;6.07;3.00;;;;;;;;;;4978433;28;20029;-78
2022/10/31 13:41:49;;;;;;;8.45;3.20;;;;;;;;;;4978560;28;20081;-77
2022/10/31 13:44:23;;;;;;;5.97;2.70;;;;;;;;;;4978447;28;20064;-78
2022/10/31 13:46:50;;;;;;;8.65;3.15;;;;;;;;;;4978319;28;20034;-78
2022/10/31 13:49:25;;;;;;;6.93;2.83;;;;;;;;;;4978234;28;20062;-78
2022/10/31 13:51:54;;;;;;;3.85;2.95;;;;;;;;;;4978650;28;20034;-77
2022/10/31 13:54:31;;;;;;;8.50;2.97;;;;;;;;;;4978166;28;20369;-79
2022/10/31 13:56:57;;;;;;;7.13;2.67;;;;;;;;;;4978142;28;20117;-77
2022/10/31 13:59:24;;;;;;;6.63;2.78;;;;;;;;;;4970352;28;20034;-80
2022/10/31 14:01:59;;;;;;;4.68;2.50;;;;;;;;;;4977744;28;20026;-81
2022/10/31 14:04:52;;;;;;;5.47;3.67;;;;;;;;;;4978263;28;20102;-81
2022/10/31 14:07:22;;;;;;;6.28;2.78;;;;;;;;;;4977834;28;20378;-81
2022/10/31 14:09:47;;;;;;;6.50;2.70;;;;;;;;;;4977556;28;20055;-81
2022/10/31 14:12:37;;;;;;;5.70;3.25;;;;;;;;;;4977972;28;20462;-80
2022/10/31 14:15:13;;;;;;;8.27;3.35;;;;;;;;;;4977995;28;20034;-82
2022/10/31 14:18:05;;;;;;;7.15;2.95;;;;;;;;;;4977848;28;20534;-79
2022/10/31 14:20:38;;;;;;;8.35;2.97;;;;;;;;;;4977478;28;20442;-81
2022/10/31 14:23:30;;;;;;;5.07;2.90;;;;;;;;;;4977749;28;20023;-80
2022/10/31 14:26:16;;;;;;;8.98;2.72;;;;;;;;;;4973925;28;20122;-81
2022/10/31 14:28:42;;;;;;;8.10;2.95;;;;;;;;;;4977496;28;20031;-82
2022/10/31 14:31:35;;;;;;;7.53;3.10;;;;;;;;;;4977520;28;20030;-81
2022/10/31 14:34:34;;;;;;;4.32;2.50;;;;;;;;;;4977615;28;20034;-82
2022/10/31 14:37:12;;;;;;;3.40;2.63;;;;;;;;;;4928427;28;20492;-82
2022/10/31 14:39:59;;;;;;;6.45;3.10;;;;;;;;;;4939048;29;20063;-82
2022/10/31 14:42:46;;;;;;;8.63;2.72;;;;;;;;;;4922066;29;20118;-82
2022/10/31 14:45:33;;;;;;;9.85;3.00;;;;;;;;;;4938875;29;20554;-83
2022/10/31 14:48:29;;;;;;;6.65;3.08;;;;;;;;;;4963845;28;20033;-79
2022/10/31 14:50:58;;;;;;;4.68;2.72;;;;;;;;;;4938962;29;20039;-79
2022/10/31 14:53:36;;;;;;;6.70;2.83;;;;;;;;;;4938862;29;20115;-80
2022/10/31 14:56:02;;;;;;;6.28;2.90;;;;;;;;;;4963403;28;20035;-81
2022/10/31 14:58:42;;;;;;;7.75;2.90;;;;;;;;;;4977316;28;20026;-85
2022/10/31 15:01:21;;;;;;;5.13;2.60;;;;;;;;;;4977135;28;20022;-81
2022/10/31 15:03:47;;;;;;;5.93;2.83;;;;;;;;;;4976914;28;20477;-84
2022/10/31 15:06:14;;;;;;;6.30;2.65;;;;;;;;;;4976863;28;20034;-81
2022/10/31 15:08:54;;;;;;;8.45;2.80;;;;;;;;;;4976947;28;20437;-84
2022/10/31 15:11:22;;;;;;;12.27;3.15;;;;;;;;;;4977200;28;20546;-81
2022/10/31 15:13:48;;;;;;;5.38;2.47;;;;;;;;;;4976900;28;20062;-85
2022/10/31 15:16:18;;;;;;;8.70;2.90;;;;;;;;;;4976633;28;20023;-83
2022/10/31 15:18:48;;;;;;;;;;;;;;;;;;4977300;28;20057;-81
2022/10/31 15:21:16;;;;;;;6.25;3.08;;;;;;;;;;4977210;28;19953;-81
2022/10/31 15:23:43;;;;;;;6.45;2.75;;;;;;;;;;4976705;28;20041;-82
2022/10/31 15:26:18;;;;;;;8.35;3.13;;;;;;;;;;4976743;28;20105;-81
2022/10/31 15:28:43;;;;;;;4.38;2.20;;;;;;;;;;4976435;28;20035;-81
2022/10/31 15:31:16;;;;;;;6.10;2.88;;;;;;;;;;4976285;28;20034;-83
2022/10/31 15:33:46;;;;;;;7.28;4.13;;;;;;;;;;4976550;28;20039;-83
2022/10/31 15:36:22;;;;;;;11.90;4.22;;;;;;;;;;4976539;28;20031;-84
2022/10/31 15:38:49;;;;;;;7.95;4.40;;;;;;;;;;4976434;28;20037;-84
2022/10/31 15:41:23;;;;;;;8.38;3.65;;;;;;;;;;4976297;28;20073;-84
2022/10/31 15:43:49;;;;;;;9.38;3.97;;;;;;;;;;4976191;28;20030;-81
2022/10/31 15:46:14;;;;;;;7.18;3.55;;;;;;;;;;4976066;28;20033;-80
2022/10/31 15:48:45;;;;;;;6.47;3.25;;;;;;;;;;4975930;28;20030;-84
2022/10/31 15:51:11;;;;;;;8.55;3.58;;;;;;;;;;4976098;28;20027;-84
2022/10/31 15:53:43;;;;;;;8.80;3.65;;;;;;;;;;4958568;28;20057;-80
2022/10/31 15:56:12;;;;;;;8.07;3.47;;;;;;;;;;4975917;28;20101;-80
2022/10/31 15:58:47;;;;;;;7.80;3.75;;;;;;;;;;4975942;28;20027;-83
2022/10/31 16:01:21;;;;;;;9.80;3.08;;;;;;;;;;4976095;28;20101;-83
2022/10/31 16:04:02;;;;;;;6.38;3.25;;;;;;;;;;4975945;28;20027;-83
2022/10/31 16:06:28;;;;;;;8.13;3.40;;;;;;;;;;4975675;28;20107;-83
2022/10/31 16:08:54;;;;;;;7.53;3.90;;;;;;;;;;4975501;28;20062;-83
2022/10/31 16:11:36;;;;;;;9.77;4.28;;;;;;;;;;4975678;28;20050;-83
2022/10/31 16:14:15;;;;;;;8.68;3.92;;;;;;;;;;4975639;28;20114;-80
2022/10/31 16:16:52;;;;;;;11.20;2.97;;;;;;;;;;4975411;28;20027;-82
2022/10/31 16:19:25;;;;;;;10.30;3.03;;;;;;;;;;4975783;28;20482;-81
2022/10/31 16:22:04;;;;;;;8.18;3.38;;;;;;;;;;4975514;28;20026;-82
2022/10/31 16:24:34;;;;;;;4.55;2.70;;;;;;;;;;4942209;28;20378;-81
2022/10/31 16:27:06;;;;;;;8.98;3.35;;;;;;;;;;4975486;28;20390;-82
2022/10/31 16:29:38;;;;;;;7.78;3.38;;;;;;;;;;4975780;28;20485;-82
2022/10/31 16:32:03;;;;;;;8.95;3.30;;;;;;;;;;4975521;28;20070;-82
2022/10/31 16:34:29;;;;;;;8.57;3.28;;;;;;;;;;4958016;28;20480;-81
2022/10/31 16:57:35;;;;;;;7.57;2.95;;;;;;;;;;5117910;23;20057;-79
2022/10/31 17:00:01;;;;;;;9.05;3.58;;;;;;;;;;5014109;28;20358;-86
2022/10/31 17:02:26;;;;;;;6.78;3.22;;;;;;;;;;5020556;28;20075;-83
2022/10/31 17:04:52;;;;;;;8.35;3.67;;;;;;;;;;5016342;28;20026;-80
2022/10/31 17:07:17;;;;;;;8.95;3.40;;;;;;;;;;5000153;28;20034;-86
2022/10/31 17:09:43;;;;;;;6.43;3.28;;;;;;;;;;4994443;28;20034;-78
2022/10/31 17:12:17;;;;;;;9.95;3.60;;;;;;;;;;4994369;28;20077;-82
2022/10/31 17:14:46;;;;;;;6.22;2.83;;;;;;;;;;4993907;28;20022;-81
2022/10/31 17:17:11;;;;;;;10.30;3.40;;;;;;;;;;4994759;28;20113;-82
2022/10/31 17:19:37;;;;;;;6.65;2.70;;;;;;;;;;4998517;28;20041;-81
2022/10/31 17:22:02;;;;;;;8.88;3.30;;;;;;;;;;5004223;28;20022;-80
2022/10/31 17:24:28;;;;;;;11.38;5.32;;;;;;;;;;5013437;28;20490;-80
2022/10/31 17:26:53;;;;;;;9.60;4.57;;;;;;;;;;5013676;28;20121;-81
2022/10/31 17:29:18;;;;;;;9.00;3.95;;;;;;;;;;5013671;28;20022;-80
2022/10/31 17:31:44;;;;;;;12.90;3.97;;;;;;;;;;4996079;28;20030;-81
2022/10/31 17:34:09;;;;;;;6.55;3.70;;;;;;;;;;4994014;28;20029;-82
2022/10/31 17:36:35;;;;;;;8.68;3.40;;;;;;;;;;4993690;28;20042;-81
2022/10/31 17:39:02;;;;;;;9.00;4.18;;;;;;;;;;4993777;28;20109;-82
2022/10/31 17:41:28;;;;;;;10.25;4.32;;;;;;;;;;4993875;28;20026;-80
2022/10/31 17:43:57;;;;;;;11.95;3.90;;;;;;;;;;4993948;28;20392;-82
2022/10/31 17:46:22;;;;;;;6.80;3.55;;;;;;;;;;4993614;28;20065;-82
2022/10/31 17:48:48;;;;;;;6.93;3.80;;;;;;;;;;4993598;28;20113;-80
2022/10/31 17:51:14;;;;;;;9.32;3.40;;;;;;;;;;4976191;28;20029;-81
2022/10/31 17:53:39;;;;;;;7.80;3.70;;;;;;;;;;4993649;28;20032;-81
2022/10/31 17:56:07;;;;;;;6.85;3.63;;;;;;;;;;4993493;28;20112;-82
2022/10/31 17:58:34;;;;;;;9.63;3.60;;;;;;;;;;4993557;28;20057;-81
2022/10/31 18:01:00;;;;;;;6.07;3.40;;;;;;;;;;4993742;28;20085;-81
2022/10/31 18:03:26;;;;;;;6.85;3.95;;;;;;;;;;4993583;28;20031;-82
2022/10/31 18:05:56;;;;;;;5.82;3.10;;;;;;;;;;4993211;28;20497;-81
2022/10/31 18:08:31;;;;;;;5.35;3.00;;;;;;;;;;4993210;28;20062;-81
2022/10/31 18:10:59;;;;;;;6.75;3.83;;;;;;;;;;4993649;28;20039;-81
2022/10/31 18:13:25;;;;;;;13.35;4.60;;;;;;;;;;4996187;28;20109;-81
2022/10/31 18:15:51;;;;;;;8.48;4.60;;;;;;;;;;4997014;28;20065;-82
2022/10/31 18:18:17;;;;;;;8.50;2.95;;;;;;;;;;4997045;28;20030;-81
2022/10/31 18:20:42;;;;;;;6.72;3.75;;;;;;;;;;4996820;28;20421;-81
2022/10/31 18:23:08;;;;;;;7.68;3.83;;;;;;;;;;4979291;28;20120;-83
2022/10/31 18:25:33;;;;;;;11.18;4.47;;;;;;;;;;4996970;28;20381;-81
2022/10/31 18:27:59;;;;;;;10.18;4.75;;;;;;;;;;4996845;28;20026;-80
2022/10/31 18:30:25;;;;;;;11.70;5.97;;;;;;;;;;4996832;28;20033;-83
2022/10/31 18:32:50;;;;;;;12.40;4.68;;;;;;;;;;4996747;28;20032;-79
2022/10/31 18:35:17;;;;;;;8.55;4.38;;;;;;;;;;4996872;28;20069;-84
2022/10/31 18:37:42;;;;;;;7.38;4.10;;;;;;;;;;4998466;28;20029;-81
2022/10/31 18:40:08;;;;;;;9.77;3.97;;;;;;;;;;4996808;28;20033;-81
2022/10/31 18:42:34;;;;;;;7.72;3.55;;;;;;;;;;4996592;28;20073;-82
2022/10/31 18:44:59;;;;;;;7.53;3.38;;;;;;;;;;4979209;28;20053;-81
2022/10/31 18:47:25;;;;;;;9.27;3.38;;;;;;;;;;4990023;28;20030;-83
2022/10/31 18:49:50;;;;;;;8.30;3.08;;;;;;;;;;4996637;28;20030;-80
2022/10/31 18:52:16;;;;;;;9.95;3.40;;;;;;;;;;4996793;28;20030;-81
2022/10/31 18:54:41;;;;;;;7.85;3.40;;;;;;;;;;4996824;28;20101;-84
2022/10/31 18:57:07;;;;;;;10.70;4.40;;;;;;;;;;4996582;28;20046;-80
2022/10/31 18:59:32;;;;;;;8.02;3.90;;;;;;;;;;4996560;28;20479;-79
2022/10/31 19:01:58;;;;;;;8.52;4.45;;;;;;;;;;4996622;28;20026;-86
2022/10/31 19:04:23;;;;;;;11.30;4.28;;;;;;;;;;4978981;28;20527;-85
2022/10/31 19:06:49;;;;;;;10.82;5.43;;;;;;;;;;4996674;28;20084;-81
2022/10/31 19:09:14;;;;;;;15.07;6.57;;;;;;;;;;4996542;28;20034;-82
2022/10/31 19:11:40;;;;;;;14.80;6.85;;;;;;;;;;4997023;28;20137;-80
2022/10/31 19:14:07;;;;;;;13.07;6.47;;;;;;;;;;4996555;28;20397;-78
2022/10/31 19:16:33;;;;;;;10.52;5.88;;;;;;;;;;4996131;28;20097;-82
2022/10/31 19:18:59;;;;;;;9.88;5.60;;;;;;;;;;4996260;28;20097;-78
2022/10/31 19:21:25;;;;;;;11.93;5.55;;;;;;;;;;4996216;28;20033;-77
2022/10/31 19:23:52;;;;;;;14.30;7.53;;;;;;;;;;4995307;28;20484;-77
2022/10/31 19:26:17;;;;;;;11.77;7.18;;;;;;;;;;4995959;28;20111;-81
2022/10/31 19:28:43;;;;;;;38.35;20.83;;;;;;;;;;4995956;28;20030;-87
2022/10/31 19:31:09;;;;;;;32.70;21.95;;;;;;;;;;4995949;28;20023;-88
2022/10/31 19:33:35;;;;;;;13.25;8.63;;;;;;;;;;4996434;28;20022;-78
2022/10/31 19:36:03;;;;;;;10.40;7.03;;;;;;;;;;4995784;28;20446;-77
2022/10/31 19:38:29;;;;;;;9.10;5.53;;;;;;;;;;4996004;28;20031;-76
2022/10/31 19:41:03;;;;;;;11.43;6.82;;;;;;;;;;4995958;28;20129;-78
2022/10/31 19:43:28;;;;;;;10.27;6.82;;;;;;;;;;4995723;28;20034;-78
2022/10/31 19:45:59;;;;;;;10.48;6.32;;;;;;;;;;4995388;28;20102;-78
2022/10/31 19:48:25;;;;;;;13.68;5.95;;;;;;;;;;4995505;28;20355;-81
2022/10/31 19:50:51;;;;;;;8.95;5.53;;;;;;;;;;4995802;28;20101;-77
2022/10/31 19:53:17;;;;;;;8.90;5.10;;;;;;;;;;4995576;28;20487;-76
2022/10/31 19:55:43;;;;;;;11.65;5.63;;;;;;;;;;4995319;28;20043;-81
2022/10/31 19:58:09;;;;;;;6.57;5.13;;;;;;;;;;4995444;28;20032;-77
2022/10/31 20:00:37;;;;;;;8.95;5.15;;;;;;;;;;4995647;28;20027;-78
2022/10/31 20:03:03;;;;;;;11.15;4.60;;;;;;;;;;5013201;28;20113;-78
2022/10/31 20:05:28;;;;;;;8.93;5.32;;;;;;;;;;5015033;28;20113;-86
2022/10/31 20:07:55;;;;;;;8.95;4.60;;;;;;;;;;5014982;28;20080;-83
2022/10/31 20:10:21;;;;;;;9.93;4.95;;;;;;;;;;5015434;28;20080;-80
2022/10/31 20:12:46;;;;;;;11.07;6.72;;;;;;;;;;5002219;28;20515;-76
2022/10/31 20:15:12;;;;;;;11.27;6.90;;;;;;;;;;4994739;28;20386;-82
2022/10/31 20:17:37;;;;;;;12.20;6.47;;;;;;;;;;4994368;28;20034;-78
2022/10/31 20:20:07;;;;;;;10.80;7.68;;;;;;;;;;4994842;28;20525;-76
2022/10/31 20:22:35;;;;;;;11.07;6.60;;;;;;;;;;4995144;28;20031;-78
2022/10/31 20:25:01;;;;;;;15.57;7.50;;;;;;;;;;4994268;28;20022;-83
2022/10/31 20:27:27;;;;;;;10.75;5.85;;;;;;;;;;4994572;28;20034;-82
2022/10/31 20:29:53;;;;;;;9.10;5.93;;;;;;;;;;4990203;28;20347;-78
2022/10/31 20:32:19;;;;;;;15.57;8.50;;;;;;;;;;4975387;28;20062;-78
2022/10/31 20:34:44;;;;;;;10.85;5.45;;;;;;;;;;4991675;28;20022;-78
2022/10/31 20:37:10;;;;;;;10.68;5.03;;;;;;;;;;5004930;28;20532;-78
2022/10/31 20:39:35;;;;;;;10.20;5.47;;;;;;;;;;5004970;28;20021;-77
2022/10/31 20:42:02;;;;;;;10.40;5.97;;;;;;;;;;4988780;28;20023;-85
2022/10/31 20:44:28;;;;;;;8.35;5.03;;;;;;;;;;4975173;28;20030;-82
2022/10/31 20:46:53;;;;;;;11.18;5.80;;;;;;;;;;4979072;28;20018;-83
2022/10/31 20:49:18;;;;;;;9.75;6.05;;;;;;;;;;4994390;28;20077;-77
2022/10/31 20:51:44;;;;;;;13.27;6.50;;;;;;;;;;4994570;28;20404;-78
2022/10/31 20:54:12;;;;;;;11.68;6.40;;;;;;;;;;4994311;28;20026;-77
2022/10/31 20:56:37;;;;;;;13.05;6.20;;;;;;;;;;4994012;28;20050;-79
2022/10/31 20:59:03;;;;;;;19.17;10.57;;;;;;;;;;4994145;28;20042;-79
2022/10/31 21:01:30;;;;;;;13.90;7.20;;;;;;;;;;4994277;28;20018;-77
2022/10/31 22:15:49;;;;;;;10.30;4.85;;;;;;;;;;5935918;23;20047;-78
